Time;durP1;ratioP1;P1;durP2;ratioP2;P2;SDS_P1;SDS_P2;PMS_P1;PMS_P2;Temp;Humidity;BMP_temperature;BMP_pressure;BME280_temperature;BME280_humidity;BME280_pressure;Samples;Min_cycle;Max_cycle;Signal;HPM_P1;HPM_P2
2022/01/03 00:00:10;;;;;;;133.90;63.33;;;;;;;5.08;100.00;95142.19;5073185;28;20238;-80
2022/01/03 00:02:39;;;;;;;124.90;62.60;;;;;;;4.98;100.00;95132.13;5072905;28;20687;-79
2022/01/03 00:05:09;;;;;;;136.40;64.73;;;;;;;4.99;100.00;95131.13;5070840;28;20259;-80
2022/01/03 00:07:40;;;;;;;131.27;67.07;;;;;;;4.97;100.00;95133.09;5078056;28;20213;-80
2022/01/03 00:10:11;;;;;;;160.03;74.83;;;;;;;4.94;100.00;95125.72;5069714;28;20595;-80
2022/01/03 00:12:41;;;;;;;158.77;75.43;;;;;;;4.97;100.00;95119.41;5069449;28;20647;-80
2022/01/03 00:15:13;;;;;;;161.60;74.93;;;;;;;4.92;100.00;95119.13;5077073;28;20741;-80
2022/01/03 00:17:41;;;;;;;144.53;71.00;;;;;;;4.95;100.00;95113.63;5073844;28;20202;-80
2022/01/03 00:20:12;;;;;;;157.97;75.50;;;;;;;4.94;100.00;95109.44;5076686;28;20205;-80
2022/01/03 00:22:44;;;;;;;156.70;74.43;;;;;;;4.90;100.00;95103.06;5077116;28;20240;-79
2022/01/03 00:25:18;;;;;;;154.63;72.40;;;;;;;4.79;100.00;95082.88;5073100;28;20668;-79
2022/01/03 00:27:54;;;;;;;158.43;75.33;;;;;;;4.87;100.00;95101.63;5075393;28;21122;-79
2022/01/03 00:30:22;;;;;;;149.77;71.87;;;;;;;4.85;100.00;95095.06;5070685;28;20241;-75
2022/01/03 00:32:51;;;;;;;151.60;72.67;;;;;;;4.91;100.00;95092.59;5068988;28;20204;-74
2022/01/03 00:35:21;;;;;;;144.23;68.30;;;;;;;4.87;100.00;95093.09;5068417;28;20291;-73
2022/01/03 00:37:49;;;;;;;154.60;74.37;;;;;;;4.81;100.00;95092.03;5067021;28;20222;-74
2022/01/03 00:40:23;;;;;;;168.50;75.20;;;;;;;4.76;100.00;95099.44;5067372;28;20200;-74
2022/01/03 00:42:51;;;;;;;157.93;76.30;;;;;;;4.59;100.00;95103.91;5073375;28;20288;-73
2022/01/03 00:45:20;;;;;;;160.47;73.47;;;;;;;4.65;100.00;95110.13;5068252;28;20206;-75
2022/01/03 00:47:48;;;;;;;168.73;75.90;;;;;;;4.69;100.00;95108.84;5068604;28;20215;-74
2022/01/03 00:50:19;;;;;;;195.70;86.43;;;;;;;4.67;100.00;95123.66;5067393;28;20704;-74
2022/01/03 00:52:48;;;;;;;163.13;78.67;;;;;;;4.56;100.00;95099.09;5067080;28;20193;-76
2022/01/03 00:55:15;;;;;;;164.27;79.70;;;;;;;4.64;100.00;95100.03;5068009;28;20234;-74
2022/01/03 00:58:03;;;;;;;153.87;71.00;;;;;;;4.66;100.00;95100.63;5074313;28;20209;-79
2022/01/03 01:00:33;;;;;;;130.73;59.93;;;;;;;4.52;100.00;95091.88;5069985;28;20290;-79
2022/01/03 01:03:10;;;;;;;118.53;55.40;;;;;;;4.43;100.00;95082.59;5072011;28;20730;-78
2022/01/03 01:05:40;;;;;;;84.43;42.97;;;;;;;4.19;100.00;95075.81;5074139;28;20835;-79
2022/01/03 01:08:08;;;;;;;82.30;41.80;;;;;;;4.19;100.00;95069.88;5067658;28;20205;-78
2022/01/03 01:10:39;;;;;;;80.90;41.03;;;;;;;4.12;100.00;95064.63;5068507;28;20221;-78
2022/01/03 01:13:11;;;;;;;81.40;42.97;;;;;;;4.20;100.00;95064.56;5067681;28;20204;-78
2022/01/03 01:15:39;;;;;;;86.60;44.53;;;;;;;4.27;100.00;95049.28;5070594;28;21025;-79
2022/01/03 01:18:07;;;;;;;84.20;42.70;;;;;;;4.24;100.00;95041.88;5069483;28;20208;-79
2022/01/03 01:20:39;;;;;;;90.93;45.37;;;;;;;4.33;100.00;95044.22;5067997;28;20209;-79
2022/01/03 01:23:07;;;;;;;92.20;46.43;;;;;;;4.36;100.00;95058.50;5079766;28;20553;-75
2022/01/03 01:28:23;;;;;;;91.83;46.87;;;;;;;4.46;100.00;95054.78;5067993;28;20752;-77
2022/01/03 01:30:58;;;;;;;90.00;45.87;;;;;;;4.45;100.00;95063.44;5067634;28;20241;-75
2022/01/03 01:33:27;;;;;;;100.07;46.90;;;;;;;4.46;100.00;95047.06;5069066;28;20197;-75
2022/01/03 01:36:03;;;;;;;89.60;45.87;;;;;;;4.46;100.00;95049.63;5066701;28;20196;-74
2022/01/03 01:38:33;;;;;;;88.97;46.47;;;;;;;4.36;100.00;95051.59;5067430;28;20244;-74
2022/01/03 01:41:04;;;;;;;82.90;43.00;;;;;;;4.26;100.00;95035.59;5066536;28;20252;-75
2022/01/03 01:43:37;;;;;;;96.63;45.53;;;;;;;4.29;100.00;95048.13;5067857;28;20193;-75
2022/01/03 01:46:07;;;;;;;91.27;46.87;;;;;;;4.29;100.00;95048.13;5068671;28;20212;-74
2022/01/03 01:48:37;;;;;;;100.37;48.80;;;;;;;4.27;100.00;95036.41;5068628;28;20262;-74
2022/01/03 01:51:06;;;;;;;94.27;47.57;;;;;;;4.26;100.00;95039.94;5068094;28;20218;-75
2022/01/03 01:53:42;;;;;;;114.63;53.37;;;;;;;4.30;100.00;95041.22;5066968;28;20204;-74
2022/01/03 01:56:17;;;;;;;102.77;50.40;;;;;;;4.22;100.00;95036.91;5060588;28;20197;-74
2022/01/03 01:59:03;;;;;;;102.57;49.30;;;;;;;4.29;100.00;95042.97;5065147;28;20672;-74
2022/01/03 02:01:50;;;;;;;93.77;48.17;;;;;;;4.31;100.00;95035.88;5066230;28;20986;-74
2022/01/03 02:04:33;;;;;;;98.70;47.07;;;;;;;4.24;100.00;95034.19;5067224;28;20644;-75
2022/01/03 02:07:22;;;;;;;87.93;44.27;;;;;;;4.26;100.00;95027.06;5066884;28;20237;-75
2022/01/03 02:10:01;;;;;;;91.83;45.67;;;;;;;4.26;100.00;95012.44;5066092;28;20217;-75
2022/01/03 02:12:32;;;;;;;80.50;42.17;;;;;;;4.21;100.00;95014.75;5068098;28;20212;-75
2022/01/03 02:15:03;;;;;;;79.37;41.13;;;;;;;3.98;100.00;95006.19;5068109;28;20205;-75
2022/01/03 02:17:32;;;;;;;85.33;43.13;;;;;;;3.96;100.00;94998.63;5067372;28;20201;-75
2022/01/03 02:20:09;;;;;;;87.43;45.63;;;;;;;3.86;100.00;94986.97;5066615;28;20205;-75
2022/01/03 02:22:38;;;;;;;92.50;44.33;;;;;;;3.84;100.00;94989.69;5065192;28;20193;-76
2022/01/03 02:25:08;;;;;;;93.03;45.57;;;;;;;3.84;100.00;94983.75;5067205;28;20622;-74
2022/01/03 02:27:36;;;;;;;98.80;45.50;;;;;;;3.91;100.00;94972.63;5075990;28;20286;-76
2022/01/03 02:30:07;;;;;;;98.50;47.97;;;;;;;3.91;100.00;94956.41;5070368;28;20336;-75
2022/01/03 02:32:34;;;;;;;92.07;44.57;;;;;;;4.09;100.00;94981.84;5072363;28;20296;-74
2022/01/03 02:35:02;;;;;;;83.47;42.60;;;;;;;4.00;100.00;94970.81;5072293;28;20207;-74
2022/01/03 02:37:32;;;;;;;81.27;40.73;;;;;;;4.12;100.00;94981.53;5071271;28;20288;-75
2022/01/03 02:40:01;;;;;;;80.17;41.53;;;;;;;4.13;100.00;94986.47;5070601;28;20211;-76
2022/01/03 02:42:29;;;;;;;75.57;40.03;;;;;;;4.15;100.00;94987.13;5075394;28;20197;-75
2022/01/03 02:45:02;;;;;;;72.10;37.60;;;;;;;4.20;100.00;94991.75;5070083;28;20291;-75
2022/01/03 02:47:29;;;;;;;75.33;38.43;;;;;;;4.24;100.00;94996.38;5069107;28;20276;-75
2022/01/03 02:49:57;;;;;;;81.13;40.53;;;;;;;4.25;100.00;94985.13;5064412;28;20306;-76
2022/01/03 02:52:25;;;;;;;73.83;38.60;;;;;;;4.24;100.00;94993.03;5071069;28;20255;-74
2022/01/03 02:54:56;;;;;;;82.83;41.90;;;;;;;4.25;100.00;94992.03;5070964;28;20223;-76
2022/01/03 02:57:24;;;;;;;83.27;40.23;;;;;;;4.24;100.00;94991.22;5069961;28;20288;-75
2022/01/03 02:59:55;;;;;;;74.57;40.23;;;;;;;4.24;100.00;94983.50;5069931;28;20236;-75
2022/01/03 03:02:24;;;;;;;93.77;44.90;;;;;;;4.30;100.00;94982.06;5070272;28;20201;-76
2022/01/03 03:04:55;;;;;;;85.73;44.00;;;;;;;4.29;100.00;94973.53;5068411;28;20321;-74
2022/01/03 03:07:25;;;;;;;79.23;41.20;;;;;;;4.14;100.00;94969.28;5070595;28;20216;-74
2022/01/03 03:09:55;;;;;;;78.43;40.10;;;;;;;3.97;100.00;94953.97;5075391;28;20204;-74
2022/01/03 03:12:24;;;;;;;72.67;39.80;;;;;;;3.94;100.00;94953.50;5070486;28;20687;-74
2022/01/03 03:14:52;;;;;;;71.83;38.13;;;;;;;4.01;100.00;94967.28;5070448;28;20213;-74
2022/01/03 03:17:20;;;;;;;76.07;40.27;;;;;;;4.03;100.00;94967.91;5072092;28;20209;-75
2022/01/03 03:19:56;;;;;;;79.07;39.37;;;;;;;3.98;100.00;94960.69;5070223;28;20957;-75
2022/01/03 03:22:25;;;;;;;80.40;39.03;;;;;;;4.03;100.00;94960.19;5065429;28;20598;-75
2022/01/03 03:25:01;;;;;;;81.07;42.20;;;;;;;4.17;100.00;94967.19;5067939;28;20214;-75
2022/01/03 03:27:30;;;;;;;66.90;37.00;;;;;;;4.19;100.00;94970.38;5064738;28;20201;-75
2022/01/03 03:29:58;;;;;;;74.40;38.43;;;;;;;4.26;100.00;94973.88;5068521;28;20885;-75
2022/01/03 03:32:29;;;;;;;79.93;40.73;;;;;;;4.33;100.00;94974.78;5071074;28;20353;-74
2022/01/03 03:34:57;;;;;;;80.03;40.53;;;;;;;4.31;100.00;94968.19;5070942;28;20219;-75
2022/01/03 03:37:26;;;;;;;76.77;40.30;;;;;;;4.28;100.00;94959.06;5070116;28;20212;-76
2022/01/03 03:39:56;;;;;;;78.60;38.53;;;;;;;4.25;100.00;94956.81;5066271;28;20211;-75
2022/01/03 03:42:24;;;;;;;65.77;35.17;;;;;;;4.20;100.00;94948.84;5070489;28;20211;-74
2022/01/03 03:44:52;;;;;;;73.10;38.50;;;;;;;4.30;100.00;94956.31;5068831;28;20270;-74
2022/01/03 03:47:20;;;;;;;74.87;38.10;;;;;;;4.27;100.00;94956.66;5070052;28;20198;-75
2022/01/03 03:49:48;;;;;;;79.47;39.90;;;;;;;4.25;100.00;94961.97;5068225;28;20347;-75
2022/01/03 03:52:16;;;;;;;75.47;37.77;;;;;;;4.18;100.00;94931.97;5069676;28;20252;-74
2022/01/03 03:54:44;;;;;;;80.57;39.20;;;;;;;4.26;100.00;94957.63;5070359;28;20221;-74
2022/01/03 03:57:14;;;;;;;78.93;40.30;;;;;;;4.27;100.00;94948.94;5069135;28;20210;-75
2022/01/03 03:59:41;;;;;;;78.00;41.57;;;;;;;4.28;100.00;94951.34;5070099;28;20193;-73
2022/01/03 04:02:09;;;;;;;77.10;39.83;;;;;;;4.30;100.00;94956.31;5070162;28;20197;-74
2022/01/03 04:04:38;;;;;;;79.27;41.03;;;;;;;4.33;100.00;94956.00;5069595;28;20204;-74
2022/01/03 04:07:06;;;;;;;78.70;40.63;;;;;;;4.32;100.00;94946.66;5068973;28;20205;-75
2022/01/03 04:09:34;;;;;;;77.10;40.30;;;;;;;4.24;100.00;94950.06;5068326;28;20229;-75
2022/01/03 04:12:03;;;;;;;84.43;42.03;;;;;;;4.28;100.00;94953.91;5068541;28;20306;-74
2022/01/03 04:14:33;;;;;;;97.13;48.50;;;;;;;4.24;100.00;94954.44;5068643;28;20280;-74
2022/01/03 04:17:01;;;;;;;90.03;43.57;;;;;;;4.24;100.00;94957.78;5071352;28;20201;-75
2022/01/03 04:19:29;;;;;;;88.93;44.73;;;;;;;4.27;100.00;94970.31;5074357;28;20236;-75
2022/01/03 04:21:58;;;;;;;84.37;44.17;;;;;;;4.26;100.00;94963.59;5069184;28;20237;-75
2022/01/03 04:24:25;;;;;;;95.33;45.33;;;;;;;4.15;100.00;94945.19;5069835;28;20209;-75
2022/01/03 04:26:54;;;;;;;80.17;42.20;;;;;;;4.22;100.00;94953.78;5069000;28;20334;-75
2022/01/03 04:29:21;;;;;;;88.50;42.07;;;;;;;4.14;100.00;94962.38;5069115;28;20712;-74
2022/01/03 04:31:51;;;;;;;85.53;42.87;;;;;;;4.20;100.00;94951.41;5068693;28;20592;-75
2022/01/03 04:34:19;;;;;;;79.70;39.60;;;;;;;4.16;100.00;94951.91;5070397;28;20293;-75
2022/01/03 04:36:47;;;;;;;77.90;41.63;;;;;;;4.15;100.00;94942.59;5068002;28;20235;-75
2022/01/03 04:39:15;;;;;;;79.83;42.27;;;;;;;4.16;100.00;94939.03;5069940;28;20291;-75
2022/01/03 04:41:44;;;;;;;84.77;40.60;;;;;;;4.19;100.00;94943.84;5067985;28;20197;-75
2022/01/03 04:44:13;;;;;;;74.50;38.97;;;;;;;4.19;100.00;94949.00;5066536;28;20205;-75
2022/01/03 04:46:41;;;;;;;76.63;40.93;;;;;;;4.08;100.00;94954.53;5073469;28;20270;-75
2022/01/03 04:49:10;;;;;;;78.17;40.53;;;;;;;4.10;100.00;94973.19;5067697;28;20198;-74
2022/01/03 04:51:39;;;;;;;79.10;41.30;;;;;;;4.06;100.00;94970.16;5068443;28;20219;-75
2022/01/03 04:54:08;;;;;;;74.40;40.13;;;;;;;4.03;100.00;94972.25;5068815;28;20240;-75
2022/01/03 04:56:35;;;;;;;82.97;41.93;;;;;;;3.99;100.00;94976.91;5069096;28;20209;-75
2022/01/03 04:59:05;;;;;;;84.57;44.50;;;;;;;4.00;100.00;94978.53;5068389;28;20217;-75
2022/01/03 05:01:33;;;;;;;88.33;45.17;;;;;;;4.00;100.00;94988.81;5068907;28;20319;-75
2022/01/03 05:04:01;;;;;;;90.30;47.27;;;;;;;3.97;100.00;94989.97;5078294;28;20258;-79
2022/01/03 05:06:30;;;;;;;97.90;48.23;;;;;;;3.93;100.00;94972.44;5074940;28;20259;-80
2022/01/03 05:08:58;;;;;;;86.30;45.47;;;;;;;3.96;100.00;94972.13;5079243;28;20292;-80
2022/01/03 05:11:26;;;;;;;88.10;45.47;;;;;;;3.93;100.00;94975.03;5075335;28;20229;-80
2022/01/03 05:13:55;;;;;;;78.33;42.83;;;;;;;3.85;100.00;94965.59;5078179;28;20685;-79
2022/01/03 05:16:24;;;;;;;85.27;41.73;;;;;;;3.78;100.00;94980.06;5075434;28;20208;-82
2022/01/03 05:18:51;;;;;;;84.13;41.47;;;;;;;3.74;100.00;94968.56;5077023;28;20731;-81
2022/01/03 05:21:20;;;;;;;90.03;44.13;;;;;;;3.66;100.00;94978.88;5071039;28;20197;-79
2022/01/03 05:23:50;;;;;;;70.03;37.57;;;;;;;3.48;100.00;94965.47;5074922;28;20571;-80
2022/01/03 05:26:17;;;;;;;74.90;40.23;;;;;;;3.41;100.00;94949.09;5075788;28;20287;-79
2022/01/03 05:28:47;;;;;;;87.00;44.20;;;;;;;3.49;100.00;94954.22;5077241;28;20201;-79
2022/01/03 05:31:16;;;;;;;90.60;46.07;;;;;;;3.55;100.00;94958.66;5068513;28;20226;-80
2022/01/03 05:33:45;;;;;;;89.53;46.40;;;;;;;3.62;100.00;94963.94;5075686;28;20209;-79
2022/01/03 05:36:14;;;;;;;92.00;47.03;;;;;;;3.65;100.00;94954.13;5069763;28;20695;-80
2022/01/03 05:38:43;;;;;;;96.60;47.80;;;;;;;3.67;100.00;94941.09;5074652;28;20897;-80
2022/01/03 05:41:12;;;;;;;83.80;44.57;;;;;;;3.67;100.00;94944.47;5073925;28;20670;-80
2022/01/03 05:43:40;;;;;;;86.40;43.73;;;;;;;3.68;100.00;94958.94;5073506;28;20679;-79
2022/01/03 05:46:09;;;;;;;86.87;45.93;;;;;;;3.73;100.00;94963.56;5074478;28;20197;-78
2022/01/03 05:48:37;;;;;;;91.60;47.13;;;;;;;3.67;100.00;94961.66;5072217;28;20209;-78
2022/01/03 05:51:06;;;;;;;91.07;45.33;;;;;;;3.72;100.00;94967.13;5078856;28;20229;-78
2022/01/03 05:53:34;;;;;;;91.30;46.07;;;;;;;3.73;100.00;94958.44;5068221;28;20801;-78
2022/01/03 05:56:02;;;;;;;92.87;44.43;;;;;;;3.71;100.00;94956.03;5071329;28;20232;-78
2022/01/03 05:58:32;;;;;;;91.33;45.00;;;;;;;3.72;100.00;94964.56;5067338;28;20196;-78
2022/01/03 06:01:02;;;;;;;93.23;47.50;;;;;;;3.67;100.00;94962.47;5081794;28;20189;-79
2022/01/03 06:03:34;;;;;;;89.47;46.23;;;;;;;3.70;100.00;94969.03;5077649;28;20292;-78
2022/01/03 06:06:19;;;;;;;102.37;49.47;;;;;;;3.71;100.00;94971.47;5073571;28;20202;-78
2022/01/03 06:08:47;;;;;;;104.13;51.93;;;;;;;3.70;100.00;94969.03;5072443;28;20212;-78
2022/01/03 06:11:14;;;;;;;105.90;51.73;;;;;;;3.74;100.00;94975.47;5077998;28;20286;-78
2022/01/03 06:13:43;;;;;;;116.43;57.37;;;;;;;3.74;100.00;94978.03;5069446;28;20212;-78
2022/01/03 06:16:14;;;;;;;153.17;78.93;;;;;;;3.76;100.00;94976.06;5072912;28;20293;-78
2022/01/03 06:18:43;;;;;;;145.23;71.00;;;;;;;3.82;100.00;94975.41;5072624;28;20209;-78
2022/01/03 06:21:11;;;;;;;145.43;75.13;;;;;;;3.83;100.00;94974.44;5075293;28;20192;-80
2022/01/03 06:23:42;;;;;;;147.37;77.37;;;;;;;3.79;100.00;94979.13;5087465;28;20205;-80
2022/01/03 06:26:10;;;;;;;147.80;75.50;;;;;;;3.79;100.00;94981.69;5072179;28;20221;-80
2022/01/03 06:28:38;;;;;;;141.97;70.90;;;;;;;3.78;100.00;94982.66;5073048;28;20621;-79
2022/01/03 06:31:08;;;;;;;107.97;56.30;;;;;;;3.70;100.00;94990.41;5073797;28;20248;-80
2022/01/03 06:33:36;;;;;;;87.20;45.83;;;;;;;3.65;100.00;94984.16;5075322;28;20727;-78
2022/01/03 06:36:05;;;;;;;101.83;52.00;;;;;;;3.61;100.00;94980.34;5082881;28;20271;-81
2022/01/03 06:38:32;;;;;;;119.17;59.13;;;;;;;3.67;100.00;94972.75;5074274;28;20209;-72
2022/01/03 06:41:01;;;;;;;119.80;60.53;;;;;;;3.60;100.00;94960.75;5070481;28;20205;-72
2022/01/03 06:43:29;;;;;;;115.47;59.67;;;;;;;3.68;100.00;94969.22;5071519;28;20209;-72
2022/01/03 06:45:57;;;;;;;142.40;75.23;;;;;;;3.75;100.00;94969.34;5071875;28;20222;-73
2022/01/03 06:48:26;;;;;;;158.60;78.37;;;;;;;3.80;100.00;94967.06;5070806;28;20263;-73
2022/01/03 06:50:54;;;;;;;133.80;67.67;;;;;;;3.73;100.00;94954.09;5071048;28;20213;-73
2022/01/03 06:53:23;;;;;;;143.93;71.07;;;;;;;3.82;100.00;94967.69;5070728;28;20193;-72
2022/01/03 06:55:50;;;;;;;150.37;80.07;;;;;;;3.84;100.00;94971.69;5070425;28;20201;-72
2022/01/03 06:58:18;;;;;;;158.90;79.97;;;;;;;3.93;100.00;94985.31;5070833;28;20205;-72
2022/01/03 07:00:46;;;;;;;140.63;71.63;;;;;;;3.96;100.00;94984.97;5071047;28;20638;-72
2022/01/03 07:03:13;;;;;;;116.27;60.60;;;;;;;3.97;100.00;94976.31;5070023;28;20625;-71
2022/01/03 07:05:43;;;;;;;101.57;53.90;;;;;;;4.04;100.00;94979.78;5071375;28;20295;-73
2022/01/03 07:08:11;;;;;;;100.57;52.43;;;;;;;4.13;100.00;94972.84;5071784;28;20237;-71
2022/01/03 07:10:39;;;;;;;95.47;51.03;;;;;;;4.16;100.00;94973.28;5070593;28;20264;-73
2022/01/03 07:13:07;;;;;;;106.23;52.37;;;;;;;4.19;100.00;94980.66;5068819;28;20271;-72
2022/01/03 07:21:06;;;;;;;103.90;51.40;;;;;;;4.23;100.00;94973.41;5070588;28;20230;-72
2022/01/03 07:23:35;;;;;;;105.87;55.10;;;;;;;4.22;100.00;94971.78;5071174;28;20211;-72
2022/01/03 07:26:03;;;;;;;110.13;59.03;;;;;;;4.17;100.00;94963.78;5071554;28;20209;-72
2022/01/03 07:28:30;;;;;;;117.43;60.97;;;;;;;4.20;100.00;94956.56;5069811;28;20244;-73
2022/01/03 07:30:58;;;;;;;106.70;56.50;;;;;;;4.28;100.00;94953.91;5068871;28;20260;-73
2022/01/03 07:33:26;;;;;;;117.60;60.40;;;;;;;4.33;100.00;94956.75;5068846;28;20286;-73
2022/01/03 07:35:54;;;;;;;111.73;61.03;;;;;;;4.36;100.00;94948.69;5069598;28;20587;-72
2022/01/03 07:38:24;;;;;;;97.53;49.43;;;;;;;4.35;100.00;94957.41;5068853;28;20205;-73
2022/01/03 07:40:52;;;;;;;88.40;49.40;;;;;;;4.43;100.00;94957.34;5068827;28;20213;-72
2022/01/03 07:43:20;;;;;;;105.90;57.17;;;;;;;4.48;100.00;94961.97;5068590;28;20193;-71
2022/01/03 07:45:47;;;;;;;113.10;59.73;;;;;;;4.67;100.00;94974.38;5074317;28;20656;-71
2022/01/03 07:48:15;;;;;;;106.57;56.20;;;;;;;4.72;100.00;94966.13;5069528;28;20288;-71
2022/01/03 07:50:44;;;;;;;95.27;51.53;;;;;;;4.82;100.00;94964.09;5069335;28;20288;-72
2022/01/03 07:53:12;;;;;;;97.00;51.10;;;;;;;4.86;100.00;94965.34;5067093;28;20221;-72
2022/01/03 07:55:42;;;;;;;89.13;46.40;;;;;;;4.93;100.00;94951.59;5069842;28;20236;-72
2022/01/03 07:58:11;;;;;;;76.17;41.87;;;;;;;5.01;100.00;94959.25;5067274;28;20209;-72
2022/01/03 08:00:39;;;;;;;77.83;40.30;;;;;;;5.01;100.00;94963.59;5068987;28;20225;-72
2022/01/03 08:03:07;;;;;;;71.97;40.87;;;;;;;5.07;100.00;94962.88;5068607;28;20202;-73
2022/01/03 08:05:35;;;;;;;70.07;39.30;;;;;;;5.20;100.00;94962.25;5068271;28;20212;-72
2022/01/03 08:08:03;;;;;;;69.97;37.70;;;;;;;5.27;100.00;94958.00;5069753;28;20255;-73
2022/01/03 08:10:31;;;;;;;60.70;36.63;;;;;;;5.30;100.00;94953.31;5068589;28;20785;-72
2022/01/03 08:13:01;;;;;;;61.30;32.37;;;;;;;5.46;100.00;94955.69;5067246;28;20295;-73
2022/01/03 08:15:29;;;;;;;53.77;32.23;;;;;;;5.53;100.00;94966.09;5072299;28;20670;-72
2022/01/03 08:17:57;;;;;;;55.27;32.43;;;;;;;5.58;100.00;94963.75;5068664;28;20215;-75
2022/01/03 08:20:26;;;;;;;55.53;31.50;;;;;;;5.67;100.00;94967.84;5068850;28;20205;-74
2022/01/03 08:22:55;;;;;;;51.73;31.80;;;;;;;5.77;100.00;94965.81;5067132;28;20197;-74
2022/01/03 08:25:24;;;;;;;62.87;33.27;;;;;;;5.88;100.00;94967.13;5068057;28;20199;-73
2022/01/03 08:27:52;;;;;;;53.40;30.97;;;;;;;5.91;100.00;94965.00;5073103;28;20214;-73
2022/01/03 08:30:22;;;;;;;52.43;31.67;;;;;;;5.98;100.00;94968.44;5069209;28;20241;-74
2022/01/03 08:32:51;;;;;;;56.07;30.77;;;;;;;6.17;100.00;94952.38;5071348;28;20227;-76
2022/01/03 08:35:19;;;;;;;40.97;24.30;;;;;;;6.26;100.00;94945.31;5068481;28;20319;-76
2022/01/03 08:37:47;;;;;;;42.57;22.40;;;;;;;6.42;100.00;94949.44;5068327;28;20561;-81
2022/01/03 08:40:18;;;;;;;36.03;21.43;;;;;;;6.58;100.00;94957.72;5073612;28;20215;-81
2022/01/03 08:42:46;;;;;;;34.80;21.27;;;;;;;6.62;100.00;94930.53;5073576;28;20697;-80
2022/01/03 08:45:15;;;;;;;35.73;20.67;;;;;;;6.83;100.00;94938.25;5070396;28;20196;-81
2022/01/03 08:47:46;;;;;;;30.07;18.67;;;;;;;7.01;100.00;94940.38;5078070;28;20579;-80
2022/01/03 08:50:18;;;;;;;31.97;19.47;;;;;;;7.02;100.00;94910.97;5072168;28;20284;-82
2022/01/03 08:52:46;;;;;;;36.67;21.07;;;;;;;7.22;100.00;94917.03;5072900;28;20684;-81
2022/01/03 08:55:17;;;;;;;38.67;20.27;;;;;;;7.34;100.00;94925.06;5076649;28;20207;-80
2022/01/03 08:57:51;;;;;;;40.47;21.77;;;;;;;7.46;100.00;94913.19;5067450;28;20214;-80
2022/01/03 09:00:21;;;;;;;35.43;21.20;;;;;;;7.60;100.00;94914.84;5076000;28;20195;-80
2022/01/03 09:02:58;;;;;;;36.43;20.13;;;;;;;7.66;100.00;94893.38;5066423;28;20221;-76
2022/01/03 09:05:29;;;;;;;37.60;20.53;;;;;;;7.85;100.00;94907.38;5067311;28;20197;-80
2022/01/03 09:07:58;;;;;;;31.60;19.83;;;;;;;8.02;100.00;94925.94;5077164;28;20205;-81
2022/01/03 09:10:29;;;;;;;35.17;20.60;;;;;;;8.17;100.00;94918.78;5072713;28;20205;-81
2022/01/03 09:13:01;;;;;;;33.50;20.13;;;;;;;8.20;100.00;94918.38;5072607;28;20213;-81
2022/01/03 09:15:36;;;;;;;34.00;19.53;;;;;;;8.15;100.00;94918.19;5072367;28;20288;-81
2022/01/03 09:18:08;;;;;;;36.13;19.47;;;;;;;8.21;100.00;94918.19;5074375;28;20204;-80
2022/01/03 09:20:38;;;;;;;33.37;19.73;;;;;;;8.30;100.00;94906.69;5065721;28;20229;-81
2022/01/03 09:23:11;;;;;;;32.67;17.67;;;;;;;8.35;100.00;94888.78;5071128;28;20601;-81
2022/01/03 09:31:12;;;;;;;31.17;18.50;;;;;;;8.93;100.00;94891.53;5073542;28;20232;-83
2022/01/03 09:33:42;;;;;;;36.63;20.27;;;;;;;9.09;100.00;94880.78;5072114;28;20295;-81
2022/01/03 09:36:10;;;;;;;40.33;20.97;;;;;;;9.22;100.00;94885.91;5078413;28;20204;-86
2022/01/03 09:38:44;;;;;;;31.37;20.17;;;;;;;9.25;100.00;94882.09;5076602;28;20680;-75
2022/01/03 09:41:14;;;;;;;35.17;21.83;;;;;;;9.36;100.00;94860.72;5069038;28;20251;-76
2022/01/03 09:43:53;;;;;;;38.10;22.83;;;;;;;9.56;100.00;94859.66;5072537;28;20185;-78
2022/01/03 09:46:23;;;;;;;43.43;23.07;;;;;;;9.69;99.17;94867.41;5071853;28;20185;-79
2022/01/03 09:48:56;;;;;;;39.50;23.47;;;;;;;9.75;97.13;94857.19;5073259;28;20204;-78
2022/01/03 09:51:27;;;;;;;41.83;25.23;;;;;;;9.87;96.56;94869.28;5072370;28;20348;-79
2022/01/03 09:53:58;;;;;;;42.00;24.77;;;;;;;9.93;95.33;94867.66;5074433;28;20259;-81
2022/01/03 09:56:29;;;;;;;42.87;24.87;;;;;;;9.93;96.58;94862.44;5074790;28;20203;-83
2022/01/03 09:58:57;;;;;;;41.53;23.60;;;;;;;10.09;95.10;94856.78;5081621;28;20224;-84
2022/01/03 10:01:26;;;;;;;36.63;22.80;;;;;;;10.21;94.27;94853.34;5075835;28;20644;-84
2022/01/03 10:03:56;;;;;;;39.40;23.03;;;;;;;10.43;93.95;94858.97;5082482;28;20566;-85
2022/01/03 10:06:26;;;;;;;42.83;24.60;;;;;;;10.68;93.89;94846.75;5072855;28;20198;-83
2022/01/03 10:08:56;;;;;;;45.93;26.10;;;;;;;11.16;92.14;94846.91;5081757;28;20719;-82
2022/01/03 10:11:27;;;;;;;44.13;25.73;;;;;;;11.75;89.80;94848.84;5083155;28;20295;-82
2022/01/03 10:13:56;;;;;;;44.40;26.60;;;;;;;12.14;86.40;94854.53;5075744;28;20217;-85
2022/01/03 10:16:25;;;;;;;42.10;25.33;;;;;;;12.46;85.40;94837.63;5066209;28;20213;-84
2022/01/03 10:18:52;;;;;;;47.10;28.10;;;;;;;12.65;82.92;94836.50;5073322;28;20289;-83
2022/01/03 10:21:37;;;;;;;45.50;28.10;;;;;;;12.69;82.86;94819.38;5067993;28;20205;-82
2022/01/03 10:24:06;;;;;;;45.27;27.63;;;;;;;13.06;82.09;94820.72;5073395;28;20898;-83
2022/01/03 10:26:34;;;;;;;50.20;26.87;;;;;;;13.76;80.57;94820.59;5073372;28;20229;-85
2022/01/03 10:29:17;;;;;;;45.90;27.43;;;;;;;14.72;76.31;94812.56;5074458;28;20579;-82
2022/01/03 10:31:47;;;;;;;42.43;25.17;;;;;;;15.61;72.65;94810.59;5077962;28;20275;-83
2022/01/03 10:34:17;;;;;;;34.67;22.97;;;;;;;16.60;69.49;94792.69;5076750;28;20218;-83
2022/01/03 10:36:49;;;;;;;40.43;24.23;;;;;;;16.99;66.58;94788.78;5077105;28;20194;-83
2022/01/03 10:39:19;;;;;;;35.17;23.37;;;;;;;17.05;66.61;94788.81;5071066;28;20259;-84
2022/01/03 10:41:48;;;;;;;28.03;18.67;;;;;;;16.76;66.90;94778.66;5079077;28;20244;-79
2022/01/03 10:44:33;;;;;;;30.40;17.20;;;;;;;16.47;67.79;94785.25;5079814;28;20237;-82
2022/01/03 10:47:01;;;;;;;27.77;17.67;;;;;;;16.37;68.09;94780.69;5076653;28;20193;-83
2022/01/03 10:49:30;;;;;;;23.33;16.63;;;;;;;16.43;68.22;94768.41;5072755;28;20201;-83
2022/01/03 10:52:16;;;;;;;25.03;16.37;;;;;;;16.56;67.32;94760.16;5078104;28;20202;-84
2022/01/03 10:54:45;;;;;;;23.13;15.00;;;;;;;16.60;67.77;94760.41;5080230;28;20204;-86
2022/01/03 10:57:16;;;;;;;30.37;16.50;;;;;;;17.15;66.18;94752.06;5077042;28;20217;-83
2022/01/03 10:59:44;;;;;;;25.83;15.60;;;;;;;17.61;64.84;94755.69;5085035;28;20212;-83
2022/01/03 11:02:13;;;;;;;24.40;15.10;;;;;;;17.64;63.55;94749.91;5076055;28;20197;-78
2022/01/03 11:04:49;;;;;;;24.53;15.87;;;;;;;17.14;64.51;94745.25;5072853;28;20566;-79
2022/01/03 11:13:08;;;;;;;29.03;18.13;;;;;;;16.19;67.39;94738.31;5073203;28;20216;-80
2022/01/03 11:15:36;;;;;;;30.10;19.90;;;;;;;16.15;67.37;94730.16;5075295;28;20650;-82
2022/01/03 11:18:18;;;;;;;30.87;19.73;;;;;;;16.64;66.92;94724.75;5077907;28;20288;-77
2022/01/03 11:20:50;;;;;;;27.50;17.90;;;;;;;17.40;64.83;94713.53;5074030;28;20598;-78
2022/01/03 11:23:24;;;;;;;32.67;20.33;;;;;;;18.47;61.65;94720.53;5075210;28;20254;-80
2022/01/03 11:25:54;;;;;;;32.30;20.20;;;;;;;19.26;59.08;94699.53;5080873;28;20215;-79
2022/01/03 11:28:23;;;;;;;36.03;21.53;;;;;;;20.03;56.30;94708.63;5082955;28;20213;-79
2022/01/03 11:30:53;;;;;;;31.13;20.60;;;;;;;20.12;52.94;94703.53;5079370;28;20240;-79
2022/01/03 11:33:25;;;;;;;35.77;21.63;;;;;;;19.73;53.07;94699.06;5080579;28;20252;-81
2022/01/03 11:35:55;;;;;;;30.60;21.20;;;;;;;19.89;53.26;94688.41;5083755;28;20296;-80
2022/01/03 11:38:26;;;;;;;32.27;21.37;;;;;;;19.66;52.67;94685.38;5079240;28;20227;-79
2022/01/03 11:40:56;;;;;;;28.60;20.67;;;;;;;18.83;54.73;94681.00;5076153;28;20239;-79
2022/01/03 11:43:25;;;;;;;35.73;20.47;;;;;;;19.16;55.08;94677.72;5079235;28;20595;-79
2022/01/03 11:45:55;;;;;;;33.60;22.17;;;;;;;20.14;53.54;94675.84;5073314;28;20201;-81